首页
METAR-TAF:

METAR-TAF

机场 :

美里機場

美里, 马来西亚

纬度: 04-20N, 经度: 113-59E, 海拔: 17米

当前天气观测

该预报发布于48分钟前的00:00 UTC
风速3节,风向北转东北,在西之间变化
温度 27°C
湿度 89%
气压 1011 hPa
能见度10公里或以上
少量云层高于1400英尺
散云层高于15000英尺
多云层高于30000英尺

METAR: WBGR 220000Z 02003KT 280V080 9999 FEW014 SCT150 BKN300 27/25 Q1011

时间: 08:48 (00:48 UTC)

预报

该预报发布于1小时和48分钟前的23:00 UTC
预报有效从22日的 00点(UTC)到 23日的 00点(UTC)
风速3节,风向多变
能见度10公里或以上
少量云层高于1600英尺

TAF: WBGR 212300Z 2200/2300 VRB03KT 9999 FEW016

超过4000个机场的气象观测和天气预报(METAR&TAF报告)。

可查询的气象台以黄色和红色小点在地图上表示。

将鼠标移到小点上方,可查看气象台名称。

然后点击查看天气观测和预报。

如需切换地图:点击带黑十字的绿色按钮放大地图;点击带横线的绿色按钮缩小地图;或者点击绿色箭头查看邻近地区的地图。


METAR-TAF: